createdAt,value
2023-04-15T00:16:02.268Z,1002.92
2023-04-15T00:30:59.540Z,1002.85
2023-04-15T00:46:01.610Z,1002.92
2023-04-15T01:00:03.418Z,1002.95
2023-04-15T01:16:01.098Z,1003.12
2023-04-15T01:31:03.248Z,1003.09
2023-04-15T01:46:00.420Z,1003.09
2023-04-15T02:00:02.484Z,1003.15
2023-04-15T02:15:59.930Z,1003.12
2023-04-15T02:31:02.204Z,1003.05
2023-04-15T02:46:04.298Z,1003.12
2023-04-15T03:00:01.235Z,1003.19
2023-04-15T03:16:03.704Z,1003.15
2023-04-15T03:31:00.688Z,1003.15
2023-04-15T03:46:02.894Z,1003.12
2023-04-15T03:59:59.876Z,1003.12
2023-04-15T04:16:02.184Z,1003.05
2023-04-15T04:31:04.269Z,1003.09
2023-04-15T04:46:01.515Z,1003.19
2023-04-15T05:00:04.071Z,1003.25
2023-04-15T05:16:01.051Z,1003.25
2023-04-15T05:31:03.032Z,1003.25
2023-04-15T05:46:00.252Z,1003.36
2023-04-15T06:00:01.899Z,1003.42
2023-04-15T06:15:59.370Z,1003.36
2023-04-15T06:31:01.559Z,1003.36
2023-04-15T06:46:03.879Z,1003.46
2023-04-15T07:00:00.744Z,1003.56
2023-04-15T07:16:03.086Z,1003.59
2023-04-15T07:31:00.191Z,1003.76
2023-04-15T07:46:02.397Z,1003.97
2023-04-15T07:59:59.359Z,1004.1
2023-04-15T08:16:02.069Z,1004.24
2023-04-15T08:31:04.068Z,1004.27
2023-04-15T08:46:01.303Z,1004.37
2023-04-15T09:00:05.196Z,1004.44
2023-04-15T09:16:00.690Z,1004.64
2023-04-15T09:31:03.068Z,1004.74
2023-04-15T09:46:00.282Z,1004.81
2023-04-15T10:00:02.258Z,1005.02
2023-04-15T10:15:59.674Z,1004.98
2023-04-15T10:31:02.060Z,1005.08
2023-04-15T10:46:04.308Z,1005.05
2023-04-15T11:00:01.135Z,1005.05
2023-04-15T11:16:03.688Z,1005.12
2023-04-15T11:31:00.748Z,1005.08
2023-04-15T11:46:02.943Z,1005.05
2023-04-15T11:59:59.898Z,1005.08
2023-04-15T12:16:02.457Z,1005.12
2023-04-15T12:30:59.573Z,1005.19
2023-04-15T12:46:01.967Z,1005.22
2023-04-15T13:00:03.979Z,1005.32
2023-04-15T13:16:01.574Z,1005.39
2023-04-15T13:31:03.383Z,1005.46
2023-04-15T13:46:00.515Z,1005.52
2023-04-15T14:00:02.549Z,1005.63
2023-04-15T14:15:59.854Z,1005.76
2023-04-15T14:31:02.406Z,1005.86
2023-04-15T14:45:59.242Z,1006.03
2023-04-15T15:00:01.183Z,1006.2
2023-04-15T15:16:03.493Z,1006.34
2023-04-15T15:31:00.960Z,1006.51
2023-04-15T15:46:03.132Z,1006.61
2023-04-15T16:00:11.251Z,1006.61
2023-04-15T16:16:02.292Z,1006.88
2023-04-15T16:30:59.436Z,1006.95
2023-04-15T16:46:01.576Z,1007.05
2023-04-15T17:00:03.373Z,1007.28
2023-04-15T17:16:00.711Z,1007.49
2023-04-15T17:31:04.594Z,1007.69
2023-04-15T17:46:04.975Z,1007.96
2023-04-15T18:00:01.798Z,1008.13
2023-04-15T18:16:04.300Z,1008.4
2023-04-15T18:31:01.340Z,1008.64
2023-04-15T18:46:03.466Z,1008.91
2023-04-15T19:00:01.089Z,1009.08
2023-04-15T19:16:02.888Z,1009.38
2023-04-15T19:31:04.985Z,1009.49
2023-04-15T19:46:02.103Z,1009.66
2023-04-15T20:00:04.115Z,1009.76
2023-04-15T20:16:01.330Z,1009.93
2023-04-15T20:31:03.325Z,1009.99
2023-04-15T20:46:07.018Z,1010.23
2023-04-15T21:00:02.514Z,1010.26
2023-04-15T21:16:04.904Z,1010.5
2023-04-15T21:31:01.888Z,1010.74
2023-04-15T21:46:22.223Z,1010.81
2023-04-15T22:00:00.864Z,1010.87
2023-04-15T22:16:03.104Z,1011.11
2023-04-15T22:31:00.421Z,1011.42
2023-04-15T22:46:02.591Z,1011.52
2023-04-15T23:00:04.597Z,1011.65
2023-04-15T23:16:01.846Z,1011.65
2023-04-15T23:31:03.803Z,1011.79
2023-04-15T23:46:01.031Z,1011.86
